Airfield :
LOGIN :

Register | Disclaimer

   EN    FR    IT 

 










Legend :    VFR   Marginal VFR   IFR   Intensive IFR   Very Intensive IFR
Visi :
Ceiling :
>= 8 km
>= 3000ft
5 to 8 km
1000 to 3000 ft
1500m to 5 km
500 to 1000 ft
800 to 1500m
200 to 500 ft
< 800m
< 200 ft
Symbols :   Thunderstorms  Fog  Heavy snow  Heavy precipitations  Wind > 20 kt
SIGMETs :     Misc.  Thunderstorms  Icing  Turbulence  Mountain Waves  Volcanic Ashes






- Airport Elevation : 218 ft
- IATA code : LBG


LFPB - Paris / Le Bourget

CURRENT METAR :
  • 232300Z AUTO 01003KT 4500 BR NSC M01/M01 Q1025 TEMPO 0500 FG VV///

EXPIRED METARs :
  • 232230Z AUTO 05002KT 3600 1500 R09/1200D BR NSC M01/M02 Q1025 TEMPO 0500 FG VV///
  • 232200Z AUTO 02004KT 3800 BR BKN003 00/M01 Q1025 BECMG 2000 BR BKN005
  • 232130Z AUTO 01005KT 5000 BR BKN004 BKN190 M00/M01 Q1026 BECMG 2000 BR BKN005
  • 232100Z AUTO 35002KT 5000 BR SCT009 BKN190 M01/M02 Q1026 BECMG 2000 BR BKN005
  • 232030Z AUTO VRB01KT 5000 BR NSC M00/M01 Q1026 BECMG 2000 BR BKN005

TAF TAF LFPB
Valid from the 23 at 18:00 until the 24 at 18:00 UTC


231700Z 2318/2418 05010KT 9999 BKN012
BECMG 2318/2320 4000 BR BKN008
BECMG 2320/2322 05005KT 2000 BR BKN005
TEMPO 2400/2407 0500 FG BKN003
PROB30
TEMPO 2400/2407 VV///
BECMG 2408/2410 6000 NSW BKN010
PROB30
TEMPO 2413/2417 BKN012
BECMG 2416/2418 3000 BR BKN005
ATIS : +33 1 48 62 43 92



MET'MAP, your aeronautical weather chart ! - Copyright ORBIFLY December 2007 - Disclaimer

ORBIFLY MET'MAP TEAM :

Programming & Development : Alexandra Zaïnal
Concept & original design : Baudouin d'Aumeries
Assistance for programming : Marc-Olivier Méhu
Technical & hardware support : Manuel Goepfert

Contact : metmap@orbifly.com




SOURCES & CREDITS :

   NOAA